createdAt,value
2022-08-22T00:00:13.865Z,6.22
2022-08-22T00:03:11.931Z,6.97
2022-08-22T00:03:12.734Z,8.75
2022-08-22T00:06:01.307Z,7.03
2022-08-22T00:08:41.229Z,6.80
2022-08-22T00:11:28.582Z,7.18
2022-08-22T00:14:10.908Z,6.40
2022-08-22T00:17:00.478Z,6.25
2022-08-22T00:19:30.602Z,6.45
2022-08-22T00:21:58.027Z,6.00
2022-08-22T00:24:30.680Z,6.22
2022-08-22T00:27:17.384Z,5.93
2022-08-22T00:30:12.063Z,5.65
2022-08-22T00:32:47.279Z,6.13
2022-08-22T00:35:34.917Z,6.10
2022-08-22T00:38:09.352Z,5.18
2022-08-22T00:41:27.526Z,5.68
2022-08-22T00:44:24.157Z,5.80
2022-08-22T00:47:26.606Z,5.15
2022-08-22T00:50:26.339Z,5.30
2022-08-22T00:53:12.152Z,5.25
2022-08-22T00:55:45.296Z,5.38
2022-08-22T00:58:24.353Z,5.60
2022-08-22T01:01:06.834Z,5.55
2022-08-22T01:04:23.513Z,5.30
2022-08-22T01:06:53.813Z,5.00
2022-08-22T01:09:58.538Z,5.25
2022-08-22T01:12:50.676Z,5.53
2022-08-22T01:15:25.826Z,5.25
2022-08-22T01:18:37.820Z,5.35
2022-08-22T01:21:26.761Z,4.80
2022-08-22T01:24:24.898Z,5.30
2022-08-22T01:27:07.376Z,5.25
2022-08-22T01:30:03.936Z,5.00
2022-08-22T01:32:31.936Z,5.32
2022-08-22T01:35:36.060Z,5.47
2022-08-22T01:41:00.745Z,5.22
2022-08-22T01:43:58.640Z,4.90
2022-08-22T01:47:06.836Z,5.82
2022-08-22T01:49:33.885Z,5.38
2022-08-22T01:52:10.310Z,5.38
2022-08-22T01:54:44.564Z,5.63
2022-08-22T01:57:13.602Z,6.20
2022-08-22T01:59:44.236Z,5.30
2022-08-22T02:02:23.981Z,5.47
2022-08-22T02:05:09.483Z,6.97
2022-08-22T02:08:18.216Z,6.00
2022-08-22T02:10:59.866Z,6.07
2022-08-22T02:13:35.779Z,6.80
2022-08-22T02:16:16.724Z,6.95
2022-08-22T02:18:58.565Z,6.13
2022-08-22T02:22:00.224Z,6.47
2022-08-22T02:24:58.393Z,6.57
2022-08-22T02:28:00.611Z,6.90
2022-08-22T02:31:00.335Z,7.13
2022-08-22T02:33:45.912Z,6.68
2022-08-22T02:36:26.268Z,6.35
2022-08-22T02:39:05.941Z,6.35
2022-08-22T02:41:45.960Z,7.75
2022-08-22T02:44:20.522Z,6.72
2022-08-22T02:46:56.206Z,7.20
2022-08-22T02:49:43.785Z,6.90
2022-08-22T02:52:41.400Z,7.07
2022-08-22T02:55:39.488Z,6.80
2022-08-22T02:58:11.665Z,6.22
2022-08-22T03:00:59.047Z,6.72
2022-08-22T03:03:31.815Z,7.35
2022-08-22T03:06:05.581Z,6.60
2022-08-22T03:08:36.349Z,7.03
2022-08-22T03:11:11.941Z,8.50
2022-08-22T03:14:00.578Z,7.85
2022-08-22T03:16:40.546Z,7.47
2022-08-22T03:19:22.530Z,7.45
2022-08-22T03:22:02.827Z,7.03
2022-08-22T03:25:05.185Z,8.20
2022-08-22T03:27:42.384Z,7.07
2022-08-22T03:30:36.924Z,8.55
2022-08-22T03:33:17.928Z,7.30
2022-08-22T03:35:45.156Z,7.47
2022-08-22T03:38:47.826Z,6.88
2022-08-22T03:41:52.649Z,7.25
2022-08-22T03:44:35.521Z,7.55
2022-08-22T03:47:17.757Z,7.60
2022-08-22T03:49:50.780Z,7.13
2022-08-22T03:53:05.581Z,8.18
2022-08-22T03:56:19.952Z,7.55
2022-08-22T03:59:22.493Z,7.93
2022-08-22T04:02:27.503Z,7.57
2022-08-22T04:05:15.303Z,8.32
2022-08-22T04:08:03.137Z,9.00
2022-08-22T04:10:51.822Z,9.10
2022-08-22T04:13:24.850Z,8.02
2022-08-22T04:16:07.188Z,8.85
2022-08-22T04:18:43.301Z,7.88
2022-08-22T04:22:00.140Z,8.68
2022-08-22T04:24:55.355Z,8.00
2022-08-22T04:27:43.767Z,8.55
2022-08-22T04:30:16.764Z,8.73
2022-08-22T04:33:11.807Z,9.15
2022-08-22T04:35:52.360Z,8.45
2022-08-22T04:38:28.840Z,9.85
2022-08-22T04:41:04.871Z,9.27
2022-08-22T04:43:45.316Z,9.95
2022-08-22T04:46:37.070Z,10.20
2022-08-22T04:49:24.669Z,9.70
2022-08-22T04:52:05.900Z,8.20
2022-08-22T04:54:51.572Z,11.48
2022-08-22T04:57:44.188Z,12.93
2022-08-22T05:00:12.203Z,11.38
2022-08-22T05:02:48.320Z,10.65
2022-08-22T05:05:23.704Z,10.10
2022-08-22T05:07:58.679Z,9.93
2022-08-22T05:10:27.816Z,10.35
2022-08-22T05:13:23.915Z,10.63
2022-08-22T05:15:57.181Z,10.65
2022-08-22T05:18:29.609Z,10.32
2022-08-22T05:21:01.281Z,10.13
2022-08-22T05:23:58.811Z,9.70
2022-08-22T05:26:28.389Z,8.70
2022-08-22T05:29:02.952Z,8.93
2022-08-22T05:31:36.124Z,9.15
2022-08-22T05:34:04.792Z,9.20
2022-08-22T05:36:38.673Z,9.10
2022-08-22T05:39:17.167Z,8.57
2022-08-22T05:41:45.140Z,8.45
2022-08-22T05:44:28.363Z,9.05
2022-08-22T05:47:18.953Z,8.40
2022-08-22T05:50:04.295Z,9.05
2022-08-22T05:53:01.057Z,9.32
2022-08-22T05:55:55.527Z,8.30
2022-08-22T05:58:25.708Z,9.00
2022-08-22T06:01:16.843Z,9.85
2022-08-22T06:04:04.755Z,9.60
2022-08-22T06:06:38.220Z,9.18
2022-08-22T06:09:34.889Z,8.48
2022-08-22T06:12:21.706Z,8.93
2022-08-22T06:15:15.331Z,9.23
2022-08-22T06:17:51.404Z,8.55
2022-08-22T06:20:26.473Z,8.93
2022-08-22T06:23:02.559Z,8.93
2022-08-22T06:25:33.640Z,9.40
2022-08-22T06:28:06.504Z,8.15
2022-08-22T06:30:35.807Z,9.75
2022-08-22T06:33:12.645Z,8.27
2022-08-22T06:36:14.005Z,8.60
2022-08-22T06:39:07.643Z,9.13
2022-08-22T06:41:40.991Z,8.98
2022-08-22T06:44:17.796Z,9.15
2022-08-22T06:46:48.028Z,8.35
2022-08-22T06:49:16.836Z,8.30
2022-08-22T06:51:45.268Z,8.38
2022-08-22T06:54:21.747Z,8.55
2022-08-22T06:56:52.688Z,9.48
2022-08-22T06:59:26.178Z,8.32
2022-08-22T07:02:08.136Z,8.82
2022-08-22T07:04:37.136Z,8.52
2022-08-22T07:07:04.554Z,8.88
2022-08-22T07:09:38.508Z,8.65
2022-08-22T07:12:20.908Z,8.27
2022-08-22T07:14:52.206Z,9.15
2022-08-22T07:17:25.791Z,8.52
2022-08-22T07:20:23.728Z,8.82
2022-08-22T07:22:58.863Z,9.05
2022-08-22T07:25:27.466Z,8.02
2022-08-22T07:28:21.219Z,8.95
2022-08-22T07:31:18.245Z,9.13
2022-08-22T07:33:49.845Z,9.18
2022-08-22T07:36:22.611Z,9.50
2022-08-22T07:39:11.164Z,7.93
2022-08-22T07:42:11.512Z,8.68
2022-08-22T07:45:01.631Z,8.98
2022-08-22T07:47:50.532Z,8.00
2022-08-22T07:50:27.683Z,8.43
2022-08-22T07:52:59.148Z,8.57
2022-08-22T07:55:27.604Z,7.57
2022-08-22T07:58:04.677Z,7.53
2022-08-22T08:00:32.746Z,8.65
2022-08-22T08:03:06.396Z,8.82
2022-08-22T08:05:37.137Z,8.40
2022-08-22T08:08:15.587Z,8.43
2022-08-22T08:10:43.216Z,8.35
2022-08-22T08:13:21.721Z,7.47
2022-08-22T08:15:51.111Z,7.63
2022-08-22T08:18:22.233Z,7.60
2022-08-22T08:20:52.124Z,7.93
2022-08-22T08:23:23.550Z,8.38
2022-08-22T08:26:15.893Z,7.32
2022-08-22T08:28:48.190Z,7.03
2022-08-22T08:31:38.167Z,7.05
2022-08-22T08:34:25.876Z,7.55
2022-08-22T08:36:58.624Z,7.35
2022-08-22T08:39:35.016Z,7.40
2022-08-22T08:42:17.720Z,7.53
2022-08-22T08:45:01.533Z,8.07
2022-08-22T08:47:45.019Z,7.30
2022-08-22T08:50:46.326Z,6.90
2022-08-22T08:53:28.560Z,7.18
2022-08-22T08:56:25.501Z,7.07
2022-08-22T08:59:28.053Z,7.15
2022-08-22T09:02:34.796Z,7.50
2022-08-22T09:05:24.532Z,7.55
2022-08-22T09:08:27.663Z,6.95
2022-08-22T09:11:19.406Z,7.30
2022-08-22T09:14:07.604Z,6.57
2022-08-22T09:16:55.101Z,6.93
2022-08-22T09:20:24.508Z,6.40
2022-08-22T09:23:16.772Z,6.80
2022-08-22T09:25:58.545Z,6.75
2022-08-22T09:28:32.503Z,7.68
2022-08-22T09:33:58.320Z,6.35
2022-08-22T09:36:53.495Z,7.25
2022-08-22T09:39:33.410Z,6.72
2022-08-22T09:42:17.605Z,7.18
2022-08-22T09:45:05.554Z,8.02
2022-08-22T09:47:44.450Z,6.10
2022-08-22T09:50:30.953Z,6.97
2022-08-22T09:53:41.046Z,7.07
2022-08-22T09:56:20.179Z,6.88
2022-08-22T09:59:02.849Z,7.05
2022-08-22T10:02:15.549Z,6.90
2022-08-22T10:04:51.817Z,7.18
2022-08-22T10:07:40.545Z,7.25
2022-08-22T10:10:17.334Z,6.80
2022-08-22T10:12:53.083Z,6.82
2022-08-22T10:15:31.132Z,7.10
2022-08-22T10:18:18.942Z,7.53
2022-08-22T10:20:55.266Z,7.80
2022-08-22T10:23:54.128Z,7.80
2022-08-22T10:26:55.639Z,7.63
2022-08-22T10:29:47.925Z,7.43
2022-08-22T10:32:39.285Z,7.90
2022-08-22T10:35:28.717Z,7.72
2022-08-22T10:38:12.335Z,7.05
2022-08-22T10:41:02.981Z,8.18
2022-08-22T10:43:56.353Z,7.22
2022-08-22T10:46:36.401Z,7.45
2022-08-22T10:49:19.447Z,7.38
2022-08-22T10:51:53.616Z,7.38
2022-08-22T10:54:20.927Z,7.07
2022-08-22T10:56:48.096Z,7.03
2022-08-22T10:59:27.797Z,7.03
2022-08-22T11:02:42.343Z,7.60
2022-08-22T11:05:36.550Z,6.80
2022-08-22T11:08:04.391Z,6.85
2022-08-22T11:10:31.483Z,7.38
2022-08-22T11:13:37.367Z,7.13
2022-08-22T11:16:43.583Z,7.07
2022-08-22T11:19:27.769Z,6.82
2022-08-22T11:22:06.658Z,8.40
2022-08-22T11:25:11.211Z,7.65
2022-08-22T11:28:05.105Z,11.40
2022-08-22T11:33:47.446Z,10.82
2022-08-22T11:36:42.269Z,7.55
2022-08-22T11:39:45.352Z,7.78
2022-08-22T11:42:33.274Z,7.65
2022-08-22T11:45:05.561Z,7.47
2022-08-22T11:47:48.319Z,7.38
2022-08-22T11:50:21.656Z,7.78
2022-08-22T11:53:19.004Z,7.68
2022-08-22T11:55:49.534Z,8.23
2022-08-22T11:58:28.938Z,7.65
2022-08-22T12:01:20.224Z,7.13
2022-08-22T12:03:55.721Z,7.50
2022-08-22T12:06:39.491Z,7.80
2022-08-22T12:09:47.828Z,7.72
2022-08-22T12:12:27.916Z,8.20
2022-08-22T12:15:13.938Z,7.80
2022-08-22T12:18:08.351Z,7.88
2022-08-22T12:21:00.026Z,7.75
2022-08-22T12:24:19.064Z,8.57
2022-08-22T12:27:18.339Z,7.40
2022-08-22T12:30:05.007Z,8.82
2022-08-22T12:33:21.919Z,8.27
2022-08-22T12:36:22.324Z,7.22
2022-08-22T12:38:57.886Z,7.43
2022-08-22T12:41:46.715Z,8.27
2022-08-22T12:44:18.428Z,8.48
2022-08-22T12:47:04.502Z,7.80
2022-08-22T12:49:38.685Z,8.35
2022-08-22T12:52:16.071Z,8.65
2022-08-22T12:54:59.131Z,8.57
2022-08-22T12:57:57.393Z,9.80
2022-08-22T13:00:35.708Z,8.45
2022-08-22T13:03:26.880Z,8.55
2022-08-22T13:06:00.504Z,8.80
2022-08-22T13:08:46.743Z,8.30
2022-08-22T13:11:23.063Z,8.45
2022-08-22T13:13:57.425Z,7.90
2022-08-22T13:16:34.437Z,8.82
2022-08-22T13:19:18.882Z,7.85
2022-08-22T13:21:57.107Z,8.93
2022-08-22T13:24:38.545Z,8.85
2022-08-22T13:27:20.355Z,8.70
2022-08-22T13:29:57.045Z,7.75
2022-08-22T13:32:48.316Z,8.55
2022-08-22T13:35:30.441Z,7.93
2022-08-22T13:38:12.055Z,7.95
2022-08-22T13:40:46.559Z,7.90
2022-08-22T13:43:21.025Z,8.60
2022-08-22T13:46:03.386Z,8.95
2022-08-22T13:49:00.553Z,8.38
2022-08-22T13:52:00.193Z,7.50
2022-08-22T13:54:55.800Z,8.60
2022-08-22T13:57:51.796Z,8.27
2022-08-22T14:00:22.368Z,8.43
2022-08-22T14:02:56.459Z,7.85
2022-08-22T14:05:34.251Z,8.02
2022-08-22T14:08:18.486Z,8.15
2022-08-22T14:11:21.434Z,8.23
2022-08-22T14:14:01.283Z,7.95
2022-08-22T14:16:39.489Z,8.30
2022-08-22T14:19:13.631Z,7.78
2022-08-22T14:21:53.641Z,8.18
2022-08-22T14:24:48.336Z,7.53
2022-08-22T14:28:06.228Z,7.43
2022-08-22T14:30:49.526Z,7.70
2022-08-22T14:33:28.193Z,7.50
2022-08-22T14:36:03.664Z,7.15
2022-08-22T14:38:46.385Z,7.25
2022-08-22T14:41:28.829Z,8.02
2022-08-22T14:44:33.160Z,7.45
2022-08-22T14:47:04.457Z,7.93
2022-08-22T14:49:58.459Z,8.30
2022-08-22T14:52:40.936Z,7.88
2022-08-22T14:55:24.288Z,8.70
2022-08-22T14:57:51.605Z,6.78
2022-08-22T15:00:33.685Z,6.72
2022-08-22T15:03:16.519Z,7.53
2022-08-22T15:05:51.589Z,7.50
2022-08-22T15:08:27.516Z,7.20
2022-08-22T15:11:17.891Z,7.18
2022-08-22T15:13:51.353Z,8.95
2022-08-22T15:16:24.638Z,7.70
2022-08-22T15:21:30.429Z,7.22
2022-08-22T15:24:10.013Z,7.57
2022-08-22T15:26:50.643Z,8.52
2022-08-22T15:29:22.349Z,7.80
2022-08-22T15:31:54.803Z,8.45
2022-08-22T15:34:33.649Z,8.13
2022-08-22T15:37:18.076Z,7.47
2022-08-22T15:40:00.645Z,7.10
2022-08-22T15:42:40.188Z,7.82
2022-08-22T15:45:18.624Z,7.75
2022-08-22T15:47:52.118Z,7.90
2022-08-22T15:50:54.837Z,7.40
2022-08-22T15:53:26.517Z,7.38
2022-08-22T15:56:05.047Z,7.00
2022-08-22T15:58:39.836Z,8.52
2022-08-22T16:01:20.521Z,7.70
2022-08-22T16:04:06.509Z,10.35
2022-08-22T16:06:49.227Z,8.52
2022-08-22T16:09:42.631Z,8.45
2022-08-22T16:12:32.454Z,7.60
2022-08-22T16:15:01.979Z,8.02
2022-08-22T16:17:29.076Z,7.65
2022-08-22T16:20:10.054Z,8.32
2022-08-22T16:22:59.101Z,7.25
2022-08-22T16:25:44.865Z,8.10
2022-08-22T16:28:54.319Z,8.07
2022-08-22T16:31:28.824Z,7.00
2022-08-22T16:34:18.752Z,8.25
2022-08-22T16:37:08.913Z,8.50
2022-08-22T16:39:41.254Z,8.85
2022-08-22T16:42:15.681Z,8.20
2022-08-22T16:45:05.471Z,7.65
2022-08-22T16:47:32.931Z,7.95
2022-08-22T16:50:02.792Z,8.75
2022-08-22T16:52:30.139Z,8.30
2022-08-22T16:55:24.890Z,7.95
2022-08-22T16:58:32.493Z,7.90
2022-08-22T17:01:36.519Z,8.23
2022-08-22T17:04:09.599Z,7.60
2022-08-22T17:06:52.002Z,8.35
2022-08-22T17:09:40.303Z,8.45
2022-08-22T17:12:44.910Z,8.88
2022-08-22T17:15:33.271Z,9.07
2022-08-22T17:18:11.539Z,7.80
2022-08-22T17:20:48.428Z,8.20
2022-08-22T17:23:50.371Z,7.38
2022-08-22T17:26:46.697Z,8.18
2022-08-22T17:29:26.248Z,8.38
2022-08-22T17:32:12.159Z,7.82
2022-08-22T17:34:44.586Z,8.35
2022-08-22T17:37:41.194Z,8.37
2022-08-22T17:40:11.558Z,7.97
2022-08-22T17:43:08.211Z,7.88
2022-08-22T17:45:42.936Z,7.85
2022-08-22T17:48:21.503Z,7.65
2022-08-22T17:50:55.132Z,8.68
2022-08-22T17:53:41.794Z,8.60
2022-08-22T17:56:20.357Z,9.23
2022-08-22T17:59:09.221Z,8.85
2022-08-22T18:01:48.668Z,8.68
2022-08-22T18:04:47.383Z,7.75
2022-08-22T18:07:14.804Z,9.18
2022-08-22T18:09:56.480Z,8.82
2022-08-22T18:12:34.291Z,8.25
2022-08-22T18:15:34.496Z,8.98
2022-08-22T18:18:13.159Z,8.93
2022-08-22T18:20:50.076Z,8.95
2022-08-22T18:23:39.987Z,9.38
2022-08-22T18:26:23.972Z,9.25
2022-08-22T18:31:21.473Z,8.77
2022-08-22T18:34:01.273Z,8.25
2022-08-22T18:36:33.707Z,9.02
2022-08-22T18:39:22.490Z,10.15
2022-08-22T18:42:08.051Z,9.48
2022-08-22T18:44:37.996Z,9.43
2022-08-22T18:47:19.295Z,10.77
2022-08-22T18:49:49.157Z,9.98
2022-08-22T18:52:21.168Z,10.07
2022-08-22T18:55:06.328Z,10.63
2022-08-22T18:58:01.496Z,10.68
2022-08-22T19:00:51.876Z,11.02
2022-08-22T19:03:29.604Z,11.20
2022-08-22T19:06:18.620Z,14.13
2022-08-22T19:08:57.926Z,14.45
2022-08-22T19:11:52.205Z,14.30
2022-08-22T19:14:34.636Z,12.85
2022-08-22T19:17:16.653Z,12.95
2022-08-22T19:20:20.304Z,11.82
2022-08-22T19:22:51.139Z,11.55
2022-08-22T19:25:27.974Z,12.45
2022-08-22T19:28:10.406Z,10.88
2022-08-22T19:30:45.974Z,11.35
2022-08-22T19:33:34.623Z,10.85
2022-08-22T19:36:11.859Z,11.18
2022-08-22T19:39:00.425Z,11.13
2022-08-22T19:41:37.797Z,11.15
2022-08-22T19:44:09.197Z,10.48
2022-08-22T19:46:39.979Z,10.20
2022-08-22T19:49:27.335Z,14.57
2022-08-22T19:52:07.887Z,10.95
2022-08-22T19:54:53.335Z,10.80
2022-08-22T19:57:47.431Z,10.68
2022-08-22T20:01:04.171Z,10.85
2022-08-22T20:04:00.471Z,10.02
2022-08-22T20:06:58.363Z,9.35
2022-08-22T20:10:00.361Z,9.65
2022-08-22T20:12:46.426Z,9.40
2022-08-22T20:15:25.198Z,9.98
2022-08-22T20:20:58.370Z,9.65
2022-08-22T20:23:30.577Z,9.70
2022-08-22T20:25:58.938Z,9.88
2022-08-22T20:28:36.004Z,9.70
2022-08-22T20:31:07.651Z,9.05
2022-08-22T20:33:39.142Z,9.20
2022-08-22T20:36:16.612Z,9.18
2022-08-22T20:39:03.123Z,9.38
2022-08-22T20:41:42.793Z,10.15
2022-08-22T20:44:12.554Z,9.23
2022-08-22T20:46:46.040Z,9.07
2022-08-22T20:49:35.041Z,9.60
2022-08-22T20:52:07.128Z,9.07
2022-08-22T20:54:38.257Z,8.93
2022-08-22T20:57:25.688Z,8.73
2022-08-22T20:59:59.783Z,10.35
2022-08-22T21:02:39.323Z,9.95
2022-08-22T21:05:21.504Z,10.20
2022-08-22T21:08:03.276Z,8.95
2022-08-22T21:10:50.640Z,9.85
2022-08-22T21:13:20.439Z,8.43
2022-08-22T21:16:00.276Z,9.18
2022-08-22T21:18:40.068Z,9.27
2022-08-22T21:21:17.816Z,9.00
2022-08-22T21:23:58.593Z,7.93
2022-08-22T21:26:39.013Z,9.52
2022-08-22T21:29:14.869Z,9.27
2022-08-22T21:31:43.998Z,9.90
2022-08-22T21:34:23.920Z,9.40
2022-08-22T21:36:53.456Z,8.93
2022-08-22T21:39:43.714Z,9.18
2022-08-22T21:42:21.929Z,9.20
2022-08-22T21:45:02.548Z,10.90
2022-08-22T21:47:31.389Z,9.25
2022-08-22T21:50:02.006Z,9.30
2022-08-22T21:52:31.964Z,9.30
2022-08-22T21:55:30.549Z,9.50
2022-08-22T21:58:06.887Z,10.07
2022-08-22T22:00:54.849Z,9.20
2022-08-22T22:03:29.427Z,8.77
2022-08-22T22:05:59.878Z,8.32
2022-08-22T22:08:31.521Z,9.20
2022-08-22T22:11:08.653Z,8.63
2022-08-22T22:13:35.900Z,8.88
2022-08-22T22:16:05.494Z,9.07
2022-08-22T22:18:34.535Z,10.10
2022-08-22T22:21:02.070Z,8.25
2022-08-22T22:23:29.805Z,9.35
2022-08-22T22:26:00.789Z,9.52
2022-08-22T22:28:38.364Z,9.00
2022-08-22T22:31:06.430Z,8.85
2022-08-22T22:33:37.653Z,8.52
2022-08-22T22:36:09.456Z,8.80
2022-08-22T22:38:39.180Z,8.88
2022-08-22T22:41:06.731Z,9.07
2022-08-22T22:43:34.524Z,8.38
2022-08-22T22:46:01.667Z,9.43
2022-08-22T22:48:29.375Z,9.02
2022-08-22T22:50:56.509Z,8.52
2022-08-22T22:53:33.755Z,9.00
2022-08-22T22:56:09.868Z,8.52
2022-08-22T22:58:37.819Z,9.25
2022-08-22T23:01:15.223Z,8.95
2022-08-22T23:03:43.423Z,9.20
2022-08-22T23:06:17.331Z,8.85
2022-08-22T23:08:45.011Z,8.25
2022-08-22T23:11:18.277Z,9.32
2022-08-22T23:13:45.992Z,9.68
2022-08-22T23:16:16.117Z,9.63
2022-08-22T23:18:43.792Z,9.65
2022-08-22T23:21:15.037Z,9.65
2022-08-22T23:23:42.580Z,9.52
2022-08-22T23:26:11.120Z,8.82
2022-08-22T23:28:38.832Z,10.05
2022-08-22T23:31:18.153Z,9.80
2022-08-22T23:33:50.221Z,9.55
2022-08-22T23:36:20.653Z,8.80
2022-08-22T23:38:49.196Z,9.27
2022-08-22T23:41:21.715Z,9.27
2022-08-22T23:43:51.783Z,9.27
2022-08-22T23:46:20.656Z,8.27
2022-08-22T23:48:48.592Z,8.45
2022-08-22T23:51:22.924Z,8.52
2022-08-22T23:53:51.564Z,8.38
2022-08-22T23:56:27.455Z,8.57
2022-08-22T23:58:54.651Z,8.23
